sensor_id;sensor_type;location;lat;lon;timestamp;pressure;altitude;pressure_sealevel;temperature;humidity
14882;BME280;7533;51.278;12.588;2022-09-04T00:02:13;100152.22;;;26.53;50.93
14882;BME280;7533;51.278;12.588;2022-09-04T00:07:26;100147.09;;;26.50;50.78
14882;BME280;7533;51.278;12.588;2022-09-04T00:12:34;100149.78;;;26.50;50.92
14882;BME280;7533;51.278;12.588;2022-09-04T00:17:43;100156.34;;;26.48;50.93
14882;BME280;7533;51.278;12.588;2022-09-04T00:22:54;100173.19;;;26.42;51.29
14882;BME280;7533;51.278;12.588;2022-09-04T00:28:03;100165.06;;;26.42;51.44
14882;BME280;7533;51.278;12.588;2022-09-04T00:33:16;100167.31;;;26.36;51.44
14882;BME280;7533;51.278;12.588;2022-09-04T00:38:32;100166.75;;;26.33;51.48
14882;BME280;7533;51.278;12.588;2022-09-04T00:44:00;100164.72;;;26.25;52.15
14882;BME280;7533;51.278;12.588;2022-09-04T00:49:39;100165.88;;;26.23;51.89
14882;BME280;7533;51.278;12.588;2022-09-04T00:54:59;100165.13;;;26.21;51.86
14882;BME280;7533;51.278;12.588;2022-09-04T01:00:10;100174.69;;;26.15;52.22
14882;BME280;7533;51.278;12.588;2022-09-04T01:05:29;100169.13;;;26.07;52.28
14882;BME280;7533;51.278;12.588;2022-09-04T01:10:40;100178.66;;;26.01;52.47
14882;BME280;7533;51.278;12.588;2022-09-04T01:15:51;100182.78;;;25.96;52.64
14882;BME280;7533;51.278;12.588;2022-09-04T01:21:19;100179.22;;;25.95;52.75
14882;BME280;7533;51.278;12.588;2022-09-04T01:26:39;100190.47;;;25.91;52.94
14882;BME280;7533;51.278;12.588;2022-09-04T01:31:54;100203.47;;;25.87;52.81
14882;BME280;7533;51.278;12.588;2022-09-04T01:37:16;100200.88;;;25.85;52.93
14882;BME280;7533;51.278;12.588;2022-09-04T01:42:31;100198.31;;;25.84;53.01
14882;BME280;7533;51.278;12.588;2022-09-04T01:47:42;100202.16;;;25.81;53.28
14882;BME280;7533;51.278;12.588;2022-09-04T01:52:52;100205.13;;;25.78;53.10
14882;BME280;7533;51.278;12.588;2022-09-04T01:58:14;100211.94;;;25.73;53.25
14882;BME280;7533;51.278;12.588;2022-09-04T02:03:24;100213.06;;;25.70;53.48
14882;BME280;7533;51.278;12.588;2022-09-04T02:08:36;100216.91;;;25.68;53.27
14882;BME280;7533;51.278;12.588;2022-09-04T02:13:57;100217.31;;;25.63;53.73
14882;BME280;7533;51.278;12.588;2022-09-04T02:19:17;100213.28;;;25.57;53.75
14882;BME280;7533;51.278;12.588;2022-09-04T02:24:29;100214.41;;;25.55;53.80
14882;BME280;7533;51.278;12.588;2022-09-04T02:29:42;100221.81;;;25.53;53.71
14882;BME280;7533;51.278;12.588;2022-09-04T02:34:52;100231.94;;;25.51;54.27
14882;BME280;7533;51.278;12.588;2022-09-04T02:40:03;100230.38;;;25.48;54.19
14882;BME280;7533;51.278;12.588;2022-09-04T02:45:21;100246.03;;;25.45;54.24
14882;BME280;7533;51.278;12.588;2022-09-04T02:50:37;100234.56;;;25.41;54.50
14882;BME280;7533;51.278;12.588;2022-09-04T02:55:58;100244.69;;;25.39;54.26
14882;BME280;7533;51.278;12.588;2022-09-04T03:01:09;100246.81;;;25.36;54.67
14882;BME280;7533;51.278;12.588;2022-09-04T03:06:18;100245.38;;;25.31;54.23
14882;BME280;7533;51.278;12.588;2022-09-04T03:11:30;100246.47;;;25.29;54.17
14882;BME280;7533;51.278;12.588;2022-09-04T03:16:42;100251.31;;;25.25;54.80
14882;BME280;7533;51.278;12.588;2022-09-04T03:21:51;100246.16;;;25.22;54.86
14882;BME280;7533;51.278;12.588;2022-09-04T03:27:00;100242.84;;;25.19;55.14
14882;BME280;7533;51.278;12.588;2022-09-04T03:32:11;100243.84;;;25.18;54.93
14882;BME280;7533;51.278;12.588;2022-09-04T03:37:42;100251.25;;;25.16;54.71
14882;BME280;7533;51.278;12.588;2022-09-04T03:43:01;100247.06;;;25.12;54.95
14882;BME280;7533;51.278;12.588;2022-09-04T03:48:25;100256.34;;;25.09;55.08
14882;BME280;7533;51.278;12.588;2022-09-04T03:53:38;100249.41;;;25.05;54.65
14882;BME280;7533;51.278;12.588;2022-09-04T03:58:48;100258.78;;;25.01;55.06
14882;BME280;7533;51.278;12.588;2022-09-04T04:04:10;100262.63;;;24.98;54.81
14882;BME280;7533;51.278;12.588;2022-09-04T04:09:30;100255.59;;;24.96;55.17
14882;BME280;7533;51.278;12.588;2022-09-04T04:14:46;100271.84;;;24.96;55.22
14882;BME280;7533;51.278;12.588;2022-09-04T04:20:05;100266.56;;;24.94;55.64
14882;BME280;7533;51.278;12.588;2022-09-04T04:25:24;100271.25;;;24.92;55.67
14882;BME280;7533;51.278;12.588;2022-09-04T04:30:37;100274.94;;;24.91;55.46
14882;BME280;7533;51.278;12.588;2022-09-04T04:35:53;100273.22;;;24.90;55.55
14882;BME280;7533;51.278;12.588;2022-09-04T04:41:14;100287.03;;;24.87;55.78
14882;BME280;7533;51.278;12.588;2022-09-04T04:46:32;100290.84;;;24.85;55.86
14882;BME280;7533;51.278;12.588;2022-09-04T04:51:49;100307.22;;;24.83;55.73
14882;BME280;7533;51.278;12.588;2022-09-04T04:57:00;100315.47;;;24.82;55.96
14882;BME280;7533;51.278;12.588;2022-09-04T05:02:13;100321.13;;;24.78;56.16
14882;BME280;7533;51.278;12.588;2022-09-04T05:07:28;100322.97;;;24.78;56.02
14882;BME280;7533;51.278;12.588;2022-09-04T05:12:48;100332.94;;;24.77;56.02
14882;BME280;7533;51.278;12.588;2022-09-04T05:17:58;100335.78;;;24.76;56.10
14882;BME280;7533;51.278;12.588;2022-09-04T05:23:24;100345.00;;;24.73;56.21
14882;BME280;7533;51.278;12.588;2022-09-04T05:28:37;100349.72;;;24.71;56.26
14882;BME280;7533;51.278;12.588;2022-09-04T05:33:50;100364.22;;;24.70;56.48
14882;BME280;7533;51.278;12.588;2022-09-04T05:39:16;100378.75;;;24.69;56.32
14882;BME280;7533;51.278;12.588;2022-09-04T05:44:35;100387.84;;;24.68;56.31
14882;BME280;7533;51.278;12.588;2022-09-04T05:49:58;100393.25;;;24.68;56.45
14882;BME280;7533;51.278;12.588;2022-09-04T05:55:28;100395.94;;;24.68;56.44
14882;BME280;7533;51.278;12.588;2022-09-04T06:00:43;100395.09;;;24.68;56.61
14882;BME280;7533;51.278;12.588;2022-09-04T06:06:06;100396.94;;;24.67;56.43
14882;BME280;7533;51.278;12.588;2022-09-04T06:11:48;100395.22;;;24.66;56.53
14882;BME280;7533;51.278;12.588;2022-09-04T06:17:06;100407.91;;;24.66;56.49
14882;BME280;7533;51.278;12.588;2022-09-04T06:22:44;100417.75;;;24.67;56.70
14882;BME280;7533;51.278;12.588;2022-09-04T06:28:18;100410.59;;;24.66;56.88
14882;BME280;7533;51.278;12.588;2022-09-04T06:33:34;100414.19;;;24.66;56.81
14882;BME280;7533;51.278;12.588;2022-09-04T06:38:56;100416.50;;;24.71;56.80
14882;BME280;7533;51.278;12.588;2022-09-04T06:44:14;100410.47;;;24.67;56.91
14882;BME280;7533;51.278;12.588;2022-09-04T06:49:26;100422.06;;;24.69;56.79
14882;BME280;7533;51.278;12.588;2022-09-04T06:54:45;100421.06;;;24.70;57.14
14882;BME280;7533;51.278;12.588;2022-09-04T07:00:02;100421.75;;;24.27;57.39
14882;BME280;7533;51.278;12.588;2022-09-04T07:05:14;100427.66;;;23.75;58.96
14882;BME280;7533;51.278;12.588;2022-09-04T07:10:23;100443.06;;;23.86;59.09
14882;BME280;7533;51.278;12.588;2022-09-04T07:15:49;100439.03;;;23.67;59.73
14882;BME280;7533;51.278;12.588;2022-09-04T07:21:05;100452.34;;;23.70;59.93
14882;BME280;7533;51.278;12.588;2022-09-04T07:26:19;100454.56;;;23.77;59.61
14882;BME280;7533;51.278;12.588;2022-09-04T07:31:30;100457.16;;;23.54;59.93
14882;BME280;7533;51.278;12.588;2022-09-04T07:36:41;100448.13;;;23.66;60.17
14882;BME280;7533;51.278;12.588;2022-09-04T07:41:52;100458.94;;;23.66;60.11
14882;BME280;7533;51.278;12.588;2022-09-04T07:47:08;100467.31;;;23.63;60.11
14882;BME280;7533;51.278;12.588;2022-09-04T07:52:22;100461.09;;;23.61;60.70
14882;BME280;7533;51.278;12.588;2022-09-04T07:57:48;100471.69;;;23.40;60.70
14882;BME280;7533;51.278;12.588;2022-09-04T08:03:19;100482.31;;;23.55;60.20
14882;BME280;7533;51.278;12.588;2022-09-04T08:14:20;100497.22;;;23.36;60.91
14882;BME280;7533;51.278;12.588;2022-09-04T08:19:40;100499.84;;;23.49;60.89
14882;BME280;7533;51.278;12.588;2022-09-04T08:25:14;100502.69;;;23.71;61.17
14882;BME280;7533;51.278;12.588;2022-09-04T08:30:21;100509.13;;;23.58;61.58
14882;BME280;7533;51.278;12.588;2022-09-04T08:35:30;100502.81;;;23.70;61.31
14882;BME280;7533;51.278;12.588;2022-09-04T08:46:36;100504.75;;;23.68;60.71
14882;BME280;7533;51.278;12.588;2022-09-04T08:52:14;100499.09;;;23.95;60.44
14882;BME280;7533;51.278;12.588;2022-09-04T08:57:44;100510.75;;;24.19;59.99
14882;BME280;7533;51.278;12.588;2022-09-04T09:03:16;100506.59;;;24.26;60.20
14882;BME280;7533;51.278;12.588;2022-09-04T09:09:00;100521.25;;;24.35;59.90
14882;BME280;7533;51.278;12.588;2022-09-04T09:14:21;100517.16;;;24.29;60.08
14882;BME280;7533;51.278;12.588;2022-09-04T09:19:42;100516.69;;;24.24;60.14
14882;BME280;7533;51.278;12.588;2022-09-04T09:25:16;100517.28;;;24.28;60.27
14882;BME280;7533;51.278;12.588;2022-09-04T09:30:22;100519.91;;;24.41;59.95
14882;BME280;7533;51.278;12.588;2022-09-04T09:41:39;100515.88;;;24.11;60.88
14882;BME280;7533;51.278;12.588;2022-09-04T09:58:28;100519.09;;;24.63;59.63
14882;BME280;7533;51.278;12.588;2022-09-04T10:03:51;100516.03;;;24.67;59.30
14882;BME280;7533;51.278;12.588;2022-09-04T10:20:41;100518.63;;;24.80;59.48
14882;BME280;7533;51.278;12.588;2022-09-04T10:26:00;100522.69;;;24.86;59.40
14882;BME280;7533;51.278;12.588;2022-09-04T10:31:39;100514.31;;;24.89;59.34
14882;BME280;7533;51.278;12.588;2022-09-04T10:36:58;100514.97;;;24.92;59.09
14882;BME280;7533;51.278;12.588;2022-09-04T10:42:17;100520.09;;;24.95;59.57
14882;BME280;7533;51.278;12.588;2022-09-04T10:47:48;100518.03;;;24.99;61.00
14882;BME280;7533;51.278;12.588;2022-09-04T10:53:09;100526.88;;;25.01;61.21
14882;BME280;7533;51.278;12.588;2022-09-04T10:58:28;100517.28;;;25.08;61.67
14882;BME280;7533;51.278;12.588;2022-09-04T11:03:49;100528.72;;;24.89;60.82
14882;BME280;7533;51.278;12.588;2022-09-04T11:09:09;100518.75;;;24.78;58.83
14882;BME280;7533;51.278;12.588;2022-09-04T11:14:47;100513.81;;;24.72;58.55
14882;BME280;7533;51.278;12.588;2022-09-04T11:20:20;100513.31;;;24.67;58.27
14882;BME280;7533;51.278;12.588;2022-09-04T11:31:43;100516.19;;;24.99;58.13
14882;BME280;7533;51.278;12.588;2022-09-04T11:42:30;100516.34;;;25.09;58.40
14882;BME280;7533;51.278;12.588;2022-09-04T11:47:55;100518.66;;;25.14;58.68
14882;BME280;7533;51.278;12.588;2022-09-04T11:53:25;100516.31;;;25.20;58.60
14882;BME280;7533;51.278;12.588;2022-09-04T12:04:16;100502.13;;;25.28;59.05
14882;BME280;7533;51.278;12.588;2022-09-04T12:09:50;100509.13;;;25.30;58.74
14882;BME280;7533;51.278;12.588;2022-09-04T12:15:06;100521.59;;;25.33;58.93
14882;BME280;7533;51.278;12.588;2022-09-04T12:20:41;100514.31;;;25.33;58.67
14882;BME280;7533;51.278;12.588;2022-09-04T12:26:08;100508.66;;;25.37;58.83
14882;BME280;7533;51.278;12.588;2022-09-04T12:31:39;100504.97;;;25.38;58.52
14882;BME280;7533;51.278;12.588;2022-09-04T12:42:33;100496.56;;;25.41;59.09
14882;BME280;7533;51.278;12.588;2022-09-04T12:47:46;100488.19;;;25.44;58.99
14882;BME280;7533;51.278;12.588;2022-09-04T12:53:14;100493.34;;;25.47;59.46
14882;BME280;7533;51.278;12.588;2022-09-04T12:58:33;100491.63;;;25.46;59.17
14882;BME280;7533;51.278;12.588;2022-09-04T13:03:47;100496.66;;;25.50;59.53
14882;BME280;7533;51.278;12.588;2022-09-04T13:09:05;100501.09;;;25.51;59.56
14882;BME280;7533;51.278;12.588;2022-09-04T13:14:40;100501.34;;;25.59;59.52
14882;BME280;7533;51.278;12.588;2022-09-04T13:19:53;100489.84;;;25.67;59.41
14882;BME280;7533;51.278;12.588;2022-09-04T13:25:09;100491.81;;;25.76;59.43
14882;BME280;7533;51.278;12.588;2022-09-04T13:30:18;100492.16;;;25.83;59.69
14882;BME280;7533;51.278;12.588;2022-09-04T13:35:37;100504.97;;;25.81;59.54
14882;BME280;7533;51.278;12.588;2022-09-04T13:41:06;100497.81;;;25.80;59.77
14882;BME280;7533;51.278;12.588;2022-09-04T13:46:17;100511.75;;;25.75;59.95
14882;BME280;7533;51.278;12.588;2022-09-04T13:51:24;100504.38;;;25.77;59.85
14882;BME280;7533;51.278;12.588;2022-09-04T13:56:33;100509.53;;;25.80;59.76
14882;BME280;7533;51.278;12.588;2022-09-04T14:01:41;100508.56;;;25.81;60.34
14882;BME280;7533;51.278;12.588;2022-09-04T14:06:47;100503.72;;;25.85;60.29
14882;BME280;7533;51.278;12.588;2022-09-04T14:12:08;100516.44;;;25.84;60.35
14882;BME280;7533;51.278;12.588;2022-09-04T14:17:17;100508.63;;;25.91;60.45
14882;BME280;7533;51.278;12.588;2022-09-04T14:22:36;100509.25;;;25.95;60.57
14882;BME280;7533;51.278;12.588;2022-09-04T14:27:50;100509.38;;;25.93;60.78
14882;BME280;7533;51.278;12.588;2022-09-04T14:33:10;100506.25;;;25.98;60.40
14882;BME280;7533;51.278;12.588;2022-09-04T14:38:32;100518.84;;;25.99;60.66
14882;BME280;7533;51.278;12.588;2022-09-04T14:43:45;100510.44;;;26.02;60.69
14882;BME280;7533;51.278;12.588;2022-09-04T14:48:59;100520.28;;;26.03;61.36
14882;BME280;7533;51.278;12.588;2022-09-04T14:54:04;100509.31;;;26.04;61.13
14882;BME280;7533;51.278;12.588;2022-09-04T14:59:14;100518.19;;;26.06;61.48
14882;BME280;7533;51.278;12.588;2022-09-04T15:04:23;100521.63;;;26.08;61.15
14882;BME280;7533;51.278;12.588;2022-09-04T15:09:35;100527.91;;;26.09;61.15
14882;BME280;7533;51.278;12.588;2022-09-04T15:14:42;100533.06;;;26.12;61.20
14882;BME280;7533;51.278;12.588;2022-09-04T15:19:53;100520.16;;;26.25;61.26
14882;BME280;7533;51.278;12.588;2022-09-04T15:25:02;100527.59;;;26.23;60.89
14882;BME280;7533;51.278;12.588;2022-09-04T15:30:14;100527.31;;;26.26;60.92
14882;BME280;7533;51.278;12.588;2022-09-04T15:35:23;100526.19;;;26.29;60.74
14882;BME280;7533;51.278;12.588;2022-09-04T15:40:35;100528.59;;;26.22;60.96
14882;BME280;7533;51.278;12.588;2022-09-04T15:46:09;100525.97;;;26.21;60.83
14882;BME280;7533;51.278;12.588;2022-09-04T15:51:19;100532.16;;;26.23;60.88
14882;BME280;7533;51.278;12.588;2022-09-04T15:56:29;100536.84;;;26.21;61.05
14882;BME280;7533;51.278;12.588;2022-09-04T16:01:42;100539.44;;;26.22;60.90
14882;BME280;7533;51.278;12.588;2022-09-04T16:06:51;100541.75;;;26.06;61.38
14882;BME280;7533;51.278;12.588;2022-09-04T16:12:02;100545.44;;;26.05;61.17
14882;BME280;7533;51.278;12.588;2022-09-04T16:17:11;100551.94;;;26.14;61.05
14882;BME280;7533;51.278;12.588;2022-09-04T16:22:24;100551.41;;;26.20;60.87
14882;BME280;7533;51.278;12.588;2022-09-04T16:27:28;100550.81;;;26.16;61.35
14882;BME280;7533;51.278;12.588;2022-09-04T16:32:32;100555.81;;;26.21;60.98
14882;BME280;7533;51.278;12.588;2022-09-04T16:37:41;100557.69;;;26.20;61.64
14882;BME280;7533;51.278;12.588;2022-09-04T16:42:49;100563.13;;;26.20;61.35
14882;BME280;7533;51.278;12.588;2022-09-04T16:47:55;100567.56;;;26.21;61.21
14882;BME280;7533;51.278;12.588;2022-09-04T16:53:32;100568.44;;;26.22;61.38
14882;BME280;7533;51.278;12.588;2022-09-04T16:58:44;100564.97;;;26.20;61.30
14882;BME280;7533;51.278;12.588;2022-09-04T17:03:58;100569.41;;;26.21;61.42
14882;BME280;7533;51.278;12.588;2022-09-04T17:09:22;100572.09;;;26.21;61.21
14882;BME280;7533;51.278;12.588;2022-09-04T17:14:32;100581.13;;;26.21;61.20
14882;BME280;7533;51.278;12.588;2022-09-04T17:19:37;100585.09;;;26.17;61.40
14882;BME280;7533;51.278;12.588;2022-09-04T17:24:46;100576.97;;;26.17;61.26
14882;BME280;7533;51.278;12.588;2022-09-04T17:30:14;100580.91;;;26.13;61.68
14882;BME280;7533;51.278;12.588;2022-09-04T17:35:36;100588.34;;;26.11;61.57
14882;BME280;7533;51.278;12.588;2022-09-04T17:41:11;100587.00;;;26.05;61.98
14882;BME280;7533;51.278;12.588;2022-09-04T17:46:43;100588.38;;;26.00;62.03
14882;BME280;7533;51.278;12.588;2022-09-04T17:51:50;100589.84;;;26.04;61.81
14882;BME280;7533;51.278;12.588;2022-09-04T17:57:03;100591.94;;;26.00;61.87
14882;BME280;7533;51.278;12.588;2022-09-04T18:02:12;100608.06;;;26.02;62.07
14882;BME280;7533;51.278;12.588;2022-09-04T18:07:25;100611.06;;;25.99;61.85
14882;BME280;7533;51.278;12.588;2022-09-04T18:13:00;100623.00;;;25.96;61.55
14882;BME280;7533;51.278;12.588;2022-09-04T18:18:36;100623.78;;;25.98;60.28
14882;BME280;7533;51.278;12.588;2022-09-04T18:23:46;100629.53;;;26.05;59.74
14882;BME280;7533;51.278;12.588;2022-09-04T18:28:59;100635.56;;;26.08;59.35
14882;BME280;7533;51.278;12.588;2022-09-04T18:34:26;100644.03;;;26.15;59.53
14882;BME280;7533;51.278;12.588;2022-09-04T18:40:05;100655.63;;;26.17;58.60
14882;BME280;7533;51.278;12.588;2022-09-04T18:45:13;100649.84;;;26.22;58.40
14882;BME280;7533;51.278;12.588;2022-09-04T18:50:44;100661.41;;;26.24;57.72
14882;BME280;7533;51.278;12.588;2022-09-04T18:56:14;100660.28;;;26.26;56.79
14882;BME280;7533;51.278;12.588;2022-09-04T19:01:27;100659.19;;;26.29;56.75
14882;BME280;7533;51.278;12.588;2022-09-04T19:06:36;100672.59;;;26.30;56.40
14882;BME280;7533;51.278;12.588;2022-09-04T19:11:45;100668.03;;;26.31;56.00
14882;BME280;7533;51.278;12.588;2022-09-04T19:16:52;100671.59;;;26.31;55.27
14882;BME280;7533;51.278;12.588;2022-09-04T19:22:02;100680.75;;;26.30;55.43
14882;BME280;7533;51.278;12.588;2022-09-04T19:27:25;100682.34;;;26.33;54.88
14882;BME280;7533;51.278;12.588;2022-09-04T19:32:35;100682.47;;;26.31;54.62
14882;BME280;7533;51.278;12.588;2022-09-04T19:37:45;100686.41;;;26.38;55.20
14882;BME280;7533;51.278;12.588;2022-09-04T19:43:14;100692.09;;;26.35;54.30
14882;BME280;7533;51.278;12.588;2022-09-04T19:48:45;100690.00;;;26.39;54.26
14882;BME280;7533;51.278;12.588;2022-09-04T19:54:11;100689.13;;;26.38;54.18
14882;BME280;7533;51.278;12.588;2022-09-04T19:59:19;100694.66;;;26.37;53.89
14882;BME280;7533;51.278;12.588;2022-09-04T20:04:32;100694.66;;;26.37;53.92
14882;BME280;7533;51.278;12.588;2022-09-04T20:09:44;100697.25;;;26.38;54.01
14882;BME280;7533;51.278;12.588;2022-09-04T20:14:52;100704.16;;;26.43;53.62
14882;BME280;7533;51.278;12.588;2022-09-04T20:20:00;100700.50;;;26.44;53.58
14882;BME280;7533;51.278;12.588;2022-09-04T20:25:24;100703.22;;;26.44;53.58
14882;BME280;7533;51.278;12.588;2022-09-04T20:30:30;100710.84;;;26.38;53.59
14882;BME280;7533;51.278;12.588;2022-09-04T20:35:41;100704.31;;;26.41;53.67
14882;BME280;7533;51.278;12.588;2022-09-04T20:40:49;100708.84;;;26.41;53.34
14882;BME280;7533;51.278;12.588;2022-09-04T20:46:07;100708.84;;;26.41;53.36
14882;BME280;7533;51.278;12.588;2022-09-04T20:51:35;100722.22;;;26.44;53.17
14882;BME280;7533;51.278;12.588;2022-09-04T20:57:18;100722.94;;;26.46;53.11
14882;BME280;7533;51.278;12.588;2022-09-04T21:02:53;100719.59;;;26.42;53.07
14882;BME280;7533;51.278;12.588;2022-09-04T21:08:30;100712.06;;;26.46;52.95
14882;BME280;7533;51.278;12.588;2022-09-04T21:13:39;100717.84;;;26.52;52.73
14882;BME280;7533;51.278;12.588;2022-09-04T21:19:04;100728.09;;;26.49;52.92
14882;BME280;7533;51.278;12.588;2022-09-04T21:30:12;100727.97;;;26.39;53.13
14882;BME280;7533;51.278;12.588;2022-09-04T21:35:19;100726.84;;;26.53;52.78
14882;BME280;7533;51.278;12.588;2022-09-04T21:40:55;100737.56;;;26.54;53.03
14882;BME280;7533;51.278;12.588;2022-09-04T21:46:22;100735.59;;;26.56;52.95
14882;BME280;7533;51.278;12.588;2022-09-04T21:57:31;100728.81;;;26.62;52.61
14882;BME280;7533;51.278;12.588;2022-09-04T22:03:11;100737.66;;;26.64;52.56
14882;BME280;7533;51.278;12.588;2022-09-04T22:08:27;100732.50;;;26.61;52.56
14882;BME280;7533;51.278;12.588;2022-09-04T22:14:02;100727.97;;;26.39;52.90
14882;BME280;7533;51.278;12.588;2022-09-04T22:19:26;100719.22;;;26.35;53.14
14882;BME280;7533;51.278;12.588;2022-09-04T22:24:44;100721.94;;;26.35;53.29
14882;BME280;7533;51.278;12.588;2022-09-04T22:30:04;100732.59;;;26.27;53.47
14882;BME280;7533;51.278;12.588;2022-09-04T22:41:01;100723.81;;;26.24;53.95
14882;BME280;7533;51.278;12.588;2022-09-04T22:46:34;100717.88;;;26.30;54.00
14882;BME280;7533;51.278;12.588;2022-09-04T22:52:04;100729.00;;;26.27;53.87
14882;BME280;7533;51.278;12.588;2022-09-04T22:57:21;100728.13;;;26.26;54.25
14882;BME280;7533;51.278;12.588;2022-09-04T23:02:40;100728.53;;;26.22;54.14
14882;BME280;7533;51.278;12.588;2022-09-04T23:08:30;100736.19;;;26.17;54.43
14882;BME280;7533;51.278;12.588;2022-09-04T23:14:14;100735.31;;;26.16;54.62
14882;BME280;7533;51.278;12.588;2022-09-04T23:19:35;100738.41;;;26.11;54.79
14882;BME280;7533;51.278;12.588;2022-09-04T23:25:19;100743.72;;;26.02;55.09
14882;BME280;7533;51.278;12.588;2022-09-04T23:30:53;100735.09;;;25.97;55.25
14882;BME280;7533;51.278;12.588;2022-09-04T23:36:30;100732.50;;;25.95;55.30
14882;BME280;7533;51.278;12.588;2022-09-04T23:41:48;100738.16;;;25.92;55.36
14882;BME280;7533;51.278;12.588;2022-09-04T23:47:11;100729.44;;;25.89;55.73
14882;BME280;7533;51.278;12.588;2022-09-04T23:52:49;100741.38;;;25.86;55.58
14882;BME280;7533;51.278;12.588;2022-09-04T23:58:04;100745.34;;;25.82;55.77
